<?xml version="1.0" encoding="UTF-8" standalone="no" ?>
<gpx xmlns="http://www.topografix.com/GPX/1/1" xmlns:xsi="http://www.w3.org/2001/XMLSchema-instance" xsi:schemaLocation="http://www.topografix.com/GPX/1/1 http://www.topografix.com/GPX/1/1/gpx.xsd" version="1.1" creator="VisuGPX - https://www.visugpx.com">
  <metadata>
    <name>Millau 18 Viaduc</name>
    <desc><![CDATA[Passe sous le Viaduc. Accès en bus.]]></desc>
  </metadata>
  <trk>
    <name><![CDATA[20190418235033-GSBW7]]></name>
    <trkseg>
      <trkpt lat="44.10461" lon="3.0444">
        <ele>520</ele>
        <time>2018-05-03T16:01:45Z</time>
      </trkpt>
      <trkpt lat="44.10591" lon="3.04388">
        <ele>521</ele>
        <time>2018-05-03T16:09:45Z</time>
      </trkpt>
      <trkpt lat="44.10742" lon="3.04505">
        <ele>533</ele>
        <time>2018-05-03T16:25:45Z</time>
      </trkpt>
      <trkpt lat="44.11183" lon="3.04222">
        <ele>575</ele>
        <time>2018-05-03T17:04:45Z</time>
      </trkpt>
      <trkpt lat="44.11125" lon="3.04071">
        <ele>570</ele>
        <time>2018-05-03T17:12:45Z</time>
      </trkpt>
      <trkpt lat="44.11147" lon="3.03958">
        <ele>574</ele>
        <time>2018-05-03T17:18:45Z</time>
      </trkpt>
      <trkpt lat="44.11028" lon="3.03933">
        <ele>579</ele>
        <time>2018-05-03T17:32:45Z</time>
      </trkpt>
      <trkpt lat="44.1095" lon="3.03713">
        <ele>583</ele>
        <time>2018-05-03T17:58:45Z</time>
      </trkpt>
      <trkpt lat="44.10622" lon="3.03503">
        <ele>589</ele>
        <time>2018-05-03T18:43:45Z</time>
      </trkpt>
      <trkpt lat="44.10684" lon="3.03278">
        <ele>602</ele>
        <time>2018-05-03T18:57:45Z</time>
      </trkpt>
      <trkpt lat="44.10342" lon="3.02966">
        <ele>583</ele>
        <time>2018-05-03T19:37:45Z</time>
      </trkpt>
      <trkpt lat="44.10518" lon="3.0256">
        <ele>610</ele>
        <time>2018-05-03T20:21:45Z</time>
      </trkpt>
      <trkpt lat="44.10725" lon="3.02374">
        <ele>623</ele>
        <time>2018-05-03T20:46:45Z</time>
      </trkpt>
      <trkpt lat="44.10858" lon="3.02148">
        <ele>633</ele>
        <time>2018-05-03T21:07:45Z</time>
      </trkpt>
      <trkpt lat="44.10984" lon="3.02256">
        <ele>642</ele>
        <time>2018-05-03T21:20:45Z</time>
      </trkpt>
      <trkpt lat="44.11076" lon="3.02208">
        <ele>635</ele>
        <time>2018-05-03T21:34:45Z</time>
      </trkpt>
      <trkpt lat="44.10689" lon="3.01637">
        <ele>573</ele>
        <time>2018-05-03T22:27:45Z</time>
      </trkpt>
      <trkpt lat="44.10443" lon="3.01517">
        <ele>530</ele>
        <time>2018-05-03T22:56:45Z</time>
      </trkpt>
      <trkpt lat="44.10387" lon="3.01551">
        <ele>533</ele>
        <time>2018-05-03T23:04:45Z</time>
      </trkpt>
      <trkpt lat="44.10441" lon="3.01436">
        <ele>518</ele>
        <time>2018-05-03T23:19:45Z</time>
      </trkpt>
      <trkpt lat="44.10005" lon="3.01202">
        <ele>455</ele>
        <time>2018-05-04T00:16:45Z</time>
      </trkpt>
      <trkpt lat="44.09753" lon="3.01567">
        <ele>529</ele>
        <time>2018-05-04T01:56:45Z</time>
      </trkpt>
      <trkpt lat="44.09712" lon="3.01757">
        <ele>560</ele>
        <time>2018-05-04T02:25:45Z</time>
      </trkpt>
      <trkpt lat="44.09569" lon="3.01595">
        <ele>549</ele>
        <time>2018-05-04T02:53:45Z</time>
      </trkpt>
      <trkpt lat="44.09587" lon="3.01252">
        <ele>553</ele>
        <time>2018-05-04T03:23:45Z</time>
      </trkpt>
      <trkpt lat="44.09471" lon="3.01108">
        <ele>552</ele>
        <time>2018-05-04T03:39:45Z</time>
      </trkpt>
      <trkpt lat="44.09308" lon="3.01245">
        <ele>559</ele>
        <time>2018-05-04T03:52:45Z</time>
      </trkpt>
      <trkpt lat="44.09339" lon="3.01291">
        <ele>562</ele>
        <time>2018-05-04T03:58:45Z</time>
      </trkpt>
      <trkpt lat="44.09002" lon="3.01515">
        <ele>507</ele>
        <time>2018-05-04T05:04:45Z</time>
      </trkpt>
      <trkpt lat="44.08973" lon="3.01623">
        <ele>491</ele>
        <time>2018-05-04T05:18:45Z</time>
      </trkpt>
      <trkpt lat="44.09156" lon="3.01815">
        <ele>533</ele>
        <time>2018-05-04T06:02:45Z</time>
      </trkpt>
      <trkpt lat="44.09095" lon="3.01901">
        <ele>533</ele>
        <time>2018-05-04T06:15:45Z</time>
      </trkpt>
      <trkpt lat="44.0893" lon="3.01931">
        <ele>507</ele>
        <time>2018-05-04T06:36:45Z</time>
      </trkpt>
      <trkpt lat="44.08872" lon="3.02077">
        <ele>500</ele>
        <time>2018-05-04T06:48:45Z</time>
      </trkpt>
      <trkpt lat="44.09035" lon="3.02382">
        <ele>502</ele>
        <time>2018-05-04T07:27:45Z</time>
      </trkpt>
      <trkpt lat="44.0937" lon="3.02596">
        <ele>528</ele>
        <time>2018-05-04T08:37:45Z</time>
      </trkpt>
      <trkpt lat="44.09363" lon="3.02776">
        <ele>506</ele>
        <time>2018-05-04T08:47:45Z</time>
      </trkpt>
      <trkpt lat="44.09514" lon="3.02928">
        <ele>514</ele>
        <time>2018-05-04T09:01:45Z</time>
      </trkpt>
      <trkpt lat="44.09595" lon="3.02863">
        <ele>525</ele>
        <time>2018-05-04T09:13:45Z</time>
      </trkpt>
      <trkpt lat="44.09643" lon="3.02948">
        <ele>516</ele>
        <time>2018-05-04T09:26:45Z</time>
      </trkpt>
      <trkpt lat="44.10035" lon="3.02901">
        <ele>557</ele>
        <time>2018-05-04T10:52:45Z</time>
      </trkpt>
      <trkpt lat="44.09847" lon="3.03111">
        <ele>546</ele>
        <time>2018-05-04T11:31:45Z</time>
      </trkpt>
      <trkpt lat="44.09855" lon="3.03254">
        <ele>544</ele>
        <time>2018-05-04T11:44:45Z</time>
      </trkpt>
      <trkpt lat="44.09938" lon="3.03383">
        <ele>534</ele>
        <time>2018-05-04T12:10:45Z</time>
      </trkpt>
      <trkpt lat="44.09653" lon="3.03504">
        <ele>507</ele>
        <time>2018-05-04T12:42:45Z</time>
      </trkpt>
      <trkpt lat="44.09503" lon="3.04033">
        <ele>470</ele>
        <time>2018-05-04T13:40:45Z</time>
      </trkpt>
      <trkpt lat="44.09896" lon="3.04058">
        <ele>497</ele>
        <time>2018-05-04T14:41:45Z</time>
      </trkpt>
      <trkpt lat="44.10028" lon="3.04183">
        <ele>491</ele>
        <time>2018-05-04T15:06:45Z</time>
      </trkpt>
      <trkpt lat="44.10353" lon="3.04282">
        <ele>513</ele>
        <time>2018-05-04T15:53:45Z</time>
      </trkpt>
      <trkpt lat="44.1045" lon="3.04448">
        <ele>520</ele>
        <time>2018-05-04T16:09:45Z</time>
      </trkpt>
    </trkseg>
  </trk>
</gpx>